createdAt,value
2022-08-21T00:00:33.206Z,19.94
2022-08-21T00:03:04.758Z,20.09
2022-08-21T00:05:32.723Z,19.67
2022-08-21T00:08:00.894Z,19.51
2022-08-21T00:10:28.771Z,19.68
2022-08-21T00:12:58.686Z,19.87
2022-08-21T00:15:28.260Z,19.82
2022-08-21T00:17:58.378Z,20.01
2022-08-21T00:20:27.209Z,19.79
2022-08-21T00:22:55.540Z,19.93
2022-08-21T00:25:26.259Z,19.78
2022-08-21T00:27:54.415Z,19.97
2022-08-21T00:30:24.921Z,19.85
2022-08-21T00:32:56.415Z,20.49
2022-08-21T00:35:25.205Z,20.41
2022-08-21T00:37:53.243Z,19.91
2022-08-21T00:40:22.754Z,20.18
2022-08-21T00:42:53.830Z,20.50
2022-08-21T00:45:31.833Z,20.24
2022-08-21T00:48:00.010Z,20.16
2022-08-21T00:50:28.635Z,19.92
2022-08-21T00:52:56.734Z,19.80
2022-08-21T00:55:25.961Z,19.82
2022-08-21T00:57:54.928Z,19.98
2022-08-21T01:00:25.521Z,19.92
2022-08-21T01:02:55.398Z,19.76
2022-08-21T01:05:23.294Z,19.83
2022-08-21T01:07:51.357Z,19.83
2022-08-21T01:10:23.784Z,19.45
2022-08-21T01:12:52.520Z,19.68
2022-08-21T01:15:21.000Z,19.64
2022-08-21T01:17:48.661Z,19.66
2022-08-21T01:20:18.861Z,19.60
2022-08-21T01:22:47.936Z,19.53
2022-08-21T01:25:17.892Z,19.46
2022-08-21T01:27:45.732Z,19.02
2022-08-21T01:30:14.733Z,19.21
2022-08-21T01:32:42.389Z,18.82
2022-08-21T01:35:11.024Z,18.71
2022-08-21T01:37:39.369Z,18.83
2022-08-21T01:40:09.148Z,18.66
2022-08-21T01:42:37.560Z,18.66
2022-08-21T01:45:06.862Z,18.23
2022-08-21T01:47:34.800Z,18.47
2022-08-21T01:50:02.576Z,18.30
2022-08-21T01:52:30.744Z,18.70
2022-08-21T01:54:58.692Z,18.55
2022-08-21T01:57:29.828Z,18.08
2022-08-21T02:00:00.383Z,18.30
2022-08-21T02:02:28.031Z,18.24
2022-08-21T02:04:56.292Z,17.83
2022-08-21T02:07:24.318Z,18.09
2022-08-21T02:09:52.306Z,17.84
2022-08-21T02:12:21.380Z,17.65
2022-08-21T02:14:54.750Z,17.85
2022-08-21T02:17:22.484Z,17.60
2022-08-21T02:19:50.237Z,17.49
2022-08-21T02:22:17.901Z,17.54
2022-08-21T02:24:54.833Z,18.05
2022-08-21T02:27:26.256Z,17.69
2022-08-21T02:29:56.410Z,17.86
2022-08-21T02:32:24.373Z,18.01
2022-08-21T02:34:52.449Z,18.16
2022-08-21T02:37:23.981Z,18.07
2022-08-21T02:39:51.924Z,17.88
2022-08-21T02:42:19.533Z,17.93
2022-08-21T02:44:48.620Z,17.60
2022-08-21T02:47:17.926Z,17.78
2022-08-21T02:49:48.593Z,17.90
2022-08-21T02:52:16.600Z,18.09
2022-08-21T02:54:44.699Z,18.06
2022-08-21T02:57:12.786Z,18.02
2022-08-21T02:59:41.962Z,18.57
2022-08-21T03:02:11.789Z,18.87
2022-08-21T03:04:46.687Z,18.83
2022-08-21T03:07:14.702Z,18.09
2022-08-21T03:09:55.321Z,18.09
2022-08-21T03:12:23.526Z,18.30
2022-08-21T03:14:51.513Z,18.36
2022-08-21T03:17:19.398Z,18.39
2022-08-21T03:19:58.703Z,18.50
2022-08-21T03:22:30.806Z,18.25
2022-08-21T03:24:59.721Z,18.35
2022-08-21T03:27:28.197Z,18.05
2022-08-21T03:29:58.372Z,18.02
2022-08-21T03:32:29.461Z,18.43
2022-08-21T03:34:58.663Z,18.19
2022-08-21T03:37:28.394Z,18.20
2022-08-21T03:39:56.266Z,17.95
2022-08-21T03:42:24.306Z,18.31
2022-08-21T03:44:51.989Z,18.15
2022-08-21T03:47:19.869Z,17.87
2022-08-21T03:49:47.719Z,17.71
2022-08-21T03:52:17.096Z,17.66
2022-08-21T03:54:44.835Z,17.48
2022-08-21T03:57:12.643Z,17.74
2022-08-21T03:59:41.103Z,17.37
2022-08-21T04:02:09.225Z,17.43
2022-08-21T04:04:37.416Z,17.50
2022-08-21T04:07:05.754Z,17.55
2022-08-21T04:09:35.672Z,17.72
2022-08-21T04:12:04.945Z,17.61
2022-08-21T04:14:38.529Z,17.93
2022-08-21T04:17:06.475Z,18.08
2022-08-21T04:19:34.272Z,17.78
2022-08-21T04:22:02.063Z,17.53
2022-08-21T04:24:33.437Z,17.46
2022-08-21T04:27:05.418Z,17.14
2022-08-21T04:29:35.170Z,16.82
2022-08-21T04:32:10.059Z,17.44
2022-08-21T04:34:39.494Z,17.54
2022-08-21T04:37:09.867Z,17.61
2022-08-21T04:39:37.932Z,17.22
2022-08-21T04:42:08.495Z,16.98
2022-08-21T04:44:36.474Z,17.32
2022-08-21T04:47:04.343Z,17.20
2022-08-21T04:49:32.075Z,16.99
2022-08-21T04:52:02.942Z,17.42
2022-08-21T04:54:30.975Z,17.25
2022-08-21T04:57:00.565Z,17.30
2022-08-21T04:59:30.663Z,17.27
2022-08-21T05:01:58.822Z,17.44
2022-08-21T05:04:27.741Z,17.78
2022-08-21T05:06:56.013Z,17.81
2022-08-21T05:09:29.653Z,17.87
2022-08-21T05:11:57.683Z,18.16
2022-08-21T05:14:26.068Z,17.90
2022-08-21T05:17:02.837Z,17.86
2022-08-21T05:19:30.578Z,17.79
2022-08-21T05:22:03.405Z,18.76
2022-08-21T05:24:31.419Z,18.39
2022-08-21T05:26:59.946Z,17.99
2022-08-21T05:29:34.726Z,17.84
2022-08-21T05:32:05.927Z,18.09
2022-08-21T05:34:36.947Z,18.15
2022-08-21T05:37:07.631Z,18.25
2022-08-21T05:40:20.189Z,18.59
2022-08-21T05:42:24.823Z,18.30
2022-08-21T05:44:52.491Z,18.85
2022-08-21T05:47:23.221Z,19.45
2022-08-21T05:49:52.011Z,19.23
2022-08-21T05:52:23.104Z,19.01
2022-08-21T05:54:50.838Z,18.81
2022-08-21T05:57:20.385Z,19.27
2022-08-21T05:59:48.273Z,19.68
2022-08-21T06:02:16.100Z,19.61
2022-08-21T06:04:45.278Z,19.38
2022-08-21T06:07:13.220Z,19.64
2022-08-21T06:09:40.915Z,19.41
2022-08-21T06:12:09.354Z,19.73
2022-08-21T06:14:41.106Z,19.34
2022-08-21T06:17:12.873Z,19.74
2022-08-21T06:19:40.984Z,19.42
2022-08-21T06:22:10.788Z,19.70
2022-08-21T06:24:39.579Z,19.74
2022-08-21T06:27:08.515Z,19.77
2022-08-21T06:29:44.497Z,20.32
2022-08-21T06:32:12.777Z,20.30
2022-08-21T06:34:40.753Z,20.00
2022-08-21T06:37:08.566Z,20.27
2022-08-21T06:39:40.903Z,20.57
2022-08-21T06:42:15.382Z,20.58
2022-08-21T06:44:43.455Z,20.55
2022-08-21T06:47:11.483Z,21.14
2022-08-21T06:49:41.029Z,20.93
2022-08-21T06:52:10.945Z,20.67
2022-08-21T06:54:46.339Z,20.68
2022-08-21T06:57:14.564Z,21.53
2022-08-21T06:59:42.549Z,21.55
2022-08-21T07:02:12.237Z,22.18
2022-08-21T07:04:39.900Z,21.97
2022-08-21T07:07:09.883Z,21.70
2022-08-21T07:09:37.481Z,21.54
2022-08-21T07:12:08.631Z,22.26
2022-08-21T07:14:36.286Z,22.39
2022-08-21T07:17:04.308Z,22.35
2022-08-21T07:19:32.273Z,21.65
2022-08-21T07:22:00.981Z,22.60
2022-08-21T07:24:28.582Z,23.15
2022-08-21T07:26:56.582Z,23.10
2022-08-21T07:29:25.594Z,23.21
2022-08-21T07:31:53.393Z,23.11
2022-08-21T07:34:21.066Z,23.70
2022-08-21T07:36:48.987Z,23.70
2022-08-21T07:39:17.117Z,23.62
2022-08-21T07:41:44.828Z,23.62
2022-08-21T07:44:14.825Z,23.85
2022-08-21T07:46:44.074Z,23.93
2022-08-21T07:49:12.106Z,23.98
2022-08-21T07:51:40.163Z,23.72
2022-08-21T07:54:09.636Z,23.93
2022-08-21T07:56:43.262Z,23.63
2022-08-21T07:59:11.289Z,23.73
2022-08-21T08:01:39.577Z,23.64
2022-08-21T08:04:09.061Z,23.82
2022-08-21T08:06:36.721Z,24.06
2022-08-21T08:09:04.812Z,23.98
2022-08-21T08:11:32.592Z,24.00
2022-08-21T08:14:00.557Z,24.33
2022-08-21T08:16:30.358Z,24.56
2022-08-21T08:18:59.002Z,24.88
2022-08-21T08:21:28.974Z,24.17
2022-08-21T08:24:00.128Z,24.91
2022-08-21T08:26:46.708Z,24.80
2022-08-21T08:29:21.623Z,24.61
2022-08-21T08:31:49.276Z,24.77
2022-08-21T08:34:23.586Z,24.95
2022-08-21T08:36:58.870Z,24.95
2022-08-21T08:39:29.650Z,25.25
2022-08-21T08:41:59.145Z,24.78
2022-08-21T08:44:30.380Z,25.24
2022-08-21T08:46:58.253Z,25.00
2022-08-21T08:49:26.869Z,24.54
2022-08-21T08:51:57.176Z,24.79
2022-08-21T08:54:27.873Z,25.34
2022-08-21T08:57:01.481Z,25.12
2022-08-21T08:59:43.800Z,25.30
2022-08-21T09:02:16.782Z,24.66
2022-08-21T09:04:46.991Z,25.51
2022-08-21T09:07:20.122Z,24.99
2022-08-21T09:09:54.291Z,25.86
2022-08-21T09:12:31.050Z,25.71
2022-08-21T09:15:01.078Z,26.11
2022-08-21T09:17:33.380Z,25.86
2022-08-21T09:20:03.893Z,25.75
2022-08-21T09:22:37.371Z,25.75
2022-08-21T09:25:08.956Z,26.17
2022-08-21T09:27:37.646Z,26.18
2022-08-21T09:30:08.709Z,25.29
2022-08-21T09:32:38.171Z,25.52
2022-08-21T09:35:07.401Z,26.70
2022-08-21T09:37:48.463Z,26.19
2022-08-21T09:40:31.414Z,25.96
2022-08-21T09:43:00.391Z,26.38
2022-08-21T09:45:28.458Z,25.85
2022-08-21T09:48:10.234Z,25.54
2022-08-21T09:50:38.141Z,25.69
2022-08-21T09:53:07.201Z,25.92
2022-08-21T09:55:52.971Z,26.31
2022-08-21T09:58:20.997Z,26.70
2022-08-21T10:00:50.405Z,25.30
2022-08-21T10:03:21.547Z,26.51
2022-08-21T10:05:53.380Z,26.16
2022-08-21T10:08:24.861Z,26.50
2022-08-21T10:10:56.369Z,26.21
2022-08-21T10:13:26.819Z,26.34
2022-08-21T10:15:59.570Z,26.40
2022-08-21T10:18:28.700Z,25.07
2022-08-21T10:20:58.496Z,26.75
2022-08-21T10:23:31.999Z,26.58
2022-08-21T10:26:13.134Z,26.22
2022-08-21T10:28:45.637Z,26.85
2022-08-21T10:31:15.044Z,26.68
2022-08-21T10:33:45.214Z,25.70
2022-08-21T10:36:15.064Z,27.15
2022-08-21T10:39:17.821Z,28.02
2022-08-21T10:41:50.874Z,27.86
2022-08-21T10:44:23.124Z,27.34
2022-08-21T10:46:55.383Z,26.55
2022-08-21T10:49:25.194Z,26.41
2022-08-21T10:51:55.534Z,26.18
2022-08-21T10:54:25.923Z,25.99
2022-08-21T10:56:56.928Z,26.36
2022-08-21T10:59:28.858Z,26.95
2022-08-21T11:01:57.519Z,27.17
2022-08-21T11:04:29.920Z,26.94
2022-08-21T11:07:09.319Z,27.78
2022-08-21T11:09:48.921Z,27.76
2022-08-21T11:12:20.234Z,28.18
2022-08-21T11:14:50.774Z,28.28
2022-08-21T11:17:21.986Z,27.48
2022-08-21T11:19:51.006Z,27.78
2022-08-21T11:22:22.754Z,27.28
2022-08-21T11:24:52.564Z,27.39
2022-08-21T11:27:23.719Z,27.59
2022-08-21T11:29:53.114Z,27.23
2022-08-21T11:32:29.597Z,27.49
2022-08-21T11:35:00.521Z,26.82
2022-08-21T11:37:32.352Z,26.49
2022-08-21T11:40:02.750Z,26.66
2022-08-21T11:42:32.589Z,26.74
2022-08-21T11:45:03.987Z,26.91
2022-08-21T11:47:34.605Z,27.64
2022-08-21T11:50:05.525Z,27.63
2022-08-21T11:52:53.824Z,28.86
2022-08-21T11:55:23.752Z,27.18
2022-08-21T11:57:54.524Z,28.27
2022-08-21T12:00:23.316Z,28.25
2022-08-21T12:02:55.354Z,28.57
2022-08-21T12:05:27.868Z,27.61
2022-08-21T12:08:04.642Z,27.65
2022-08-21T12:10:36.312Z,27.80
2022-08-21T12:13:14.674Z,27.97
2022-08-21T12:15:42.686Z,28.68
2022-08-21T12:18:22.385Z,27.73
2022-08-21T12:20:59.227Z,27.46
2022-08-21T12:23:28.560Z,27.85
2022-08-21T12:26:03.633Z,27.52
2022-08-21T12:28:32.958Z,27.90
2022-08-21T12:31:00.687Z,27.91
2022-08-21T12:33:29.054Z,28.08
2022-08-21T12:36:07.186Z,28.38
2022-08-21T12:38:37.391Z,27.69
2022-08-21T12:41:06.279Z,27.68
2022-08-21T12:43:38.008Z,27.64
2022-08-21T12:46:05.936Z,27.22
2022-08-21T12:48:34.311Z,27.69
2022-08-21T12:51:07.780Z,28.60
2022-08-21T12:53:35.951Z,29.79
2022-08-21T12:56:05.802Z,30.67
2022-08-21T12:58:33.705Z,31.14
2022-08-21T13:01:07.315Z,30.67
2022-08-21T13:03:36.387Z,30.76
2022-08-21T13:06:05.477Z,30.48
2022-08-21T13:08:37.514Z,29.36
2022-08-21T13:11:11.344Z,28.93
2022-08-21T13:13:44.740Z,29.61
2022-08-21T13:16:24.789Z,29.53
2022-08-21T13:18:58.403Z,28.90
2022-08-21T13:21:29.679Z,28.79
2022-08-21T13:24:38.728Z,29.13
2022-08-21T13:26:59.387Z,29.99
2022-08-21T13:29:30.146Z,29.96
2022-08-21T13:32:01.292Z,29.54
2022-08-21T13:34:31.362Z,29.67
2022-08-21T13:37:00.542Z,29.34
2022-08-21T13:39:28.266Z,29.50
2022-08-21T13:41:57.236Z,29.99
2022-08-21T13:44:27.584Z,30.43
2022-08-21T13:46:55.599Z,30.50
2022-08-21T13:49:25.764Z,30.68
2022-08-21T13:51:53.718Z,30.74
2022-08-21T13:54:24.868Z,30.62
2022-08-21T13:56:54.511Z,30.35
2022-08-21T13:59:26.019Z,29.43
2022-08-21T14:02:00.018Z,29.26
2022-08-21T14:04:37.119Z,29.76
2022-08-21T14:07:05.411Z,29.35
2022-08-21T14:09:34.409Z,28.73
2022-08-21T14:12:03.203Z,28.81
2022-08-21T14:14:31.878Z,28.94
2022-08-21T14:17:00.540Z,28.51
2022-08-21T14:19:39.313Z,28.26
2022-08-21T14:22:30.501Z,28.52
2022-08-21T14:25:02.664Z,28.19
2022-08-21T14:27:34.968Z,28.03
2022-08-21T14:30:12.186Z,28.14
2022-08-21T14:32:51.263Z,28.15
2022-08-21T14:35:23.611Z,28.05
2022-08-21T14:37:52.727Z,27.78
2022-08-21T14:40:20.779Z,27.78
2022-08-21T14:42:53.714Z,28.64
2022-08-21T14:45:28.006Z,28.83
2022-08-21T14:47:55.783Z,28.99
2022-08-21T14:50:28.098Z,29.07
2022-08-21T14:52:56.182Z,29.37
2022-08-21T14:55:24.021Z,29.64
2022-08-21T14:57:52.402Z,30.08
2022-08-21T15:00:21.862Z,30.08
2022-08-21T15:02:49.580Z,30.10
2022-08-21T15:05:31.459Z,29.95
2022-08-21T15:08:02.398Z,29.97
2022-08-21T15:10:30.127Z,30.54
2022-08-21T15:12:57.797Z,30.81
2022-08-21T15:15:25.534Z,30.38
2022-08-21T15:17:54.428Z,31.18
2022-08-21T15:20:22.042Z,30.35
2022-08-21T15:22:49.939Z,30.46
2022-08-21T15:25:22.333Z,30.54
2022-08-21T15:27:50.014Z,30.94
2022-08-21T15:30:17.655Z,32.15
2022-08-21T15:32:45.290Z,31.71
2022-08-21T15:35:12.929Z,30.35
2022-08-21T15:37:43.528Z,31.09
2022-08-21T15:40:14.394Z,30.47
2022-08-21T15:42:43.785Z,29.63
2022-08-21T15:45:12.085Z,30.12
2022-08-21T15:47:40.475Z,30.34
2022-08-21T15:50:10.601Z,29.80
2022-08-21T15:52:38.305Z,29.60
2022-08-21T15:55:06.427Z,29.64
2022-08-21T15:57:34.074Z,29.97
2022-08-21T16:00:13.920Z,30.50
2022-08-21T16:02:41.849Z,30.78
2022-08-21T16:05:11.427Z,30.38
2022-08-21T16:07:40.094Z,29.99
2022-08-21T16:10:10.529Z,29.97
2022-08-21T16:12:39.235Z,30.25
2022-08-21T16:15:12.078Z,30.15
2022-08-21T16:17:59.896Z,29.51
2022-08-21T16:20:28.522Z,29.21
2022-08-21T16:22:56.723Z,28.95
2022-08-21T16:25:24.494Z,29.46
2022-08-21T16:27:57.294Z,29.51
2022-08-21T16:30:28.664Z,29.38
2022-08-21T16:33:00.421Z,29.52
2022-08-21T16:35:39.193Z,29.33
2022-08-21T16:38:06.958Z,29.69
2022-08-21T16:40:34.723Z,29.40
2022-08-21T16:43:02.500Z,29.57
2022-08-21T16:45:33.338Z,28.17
2022-08-21T16:48:04.478Z,29.45
2022-08-21T16:50:32.121Z,29.43
2022-08-21T16:52:59.880Z,28.42
2022-08-21T16:55:27.635Z,28.19
2022-08-21T16:57:55.209Z,28.32
2022-08-21T17:00:23.357Z,28.26
2022-08-21T17:02:55.253Z,28.35
2022-08-21T17:08:12.406Z,28.48
2022-08-21T17:10:40.053Z,28.47
2022-08-21T17:13:09.635Z,27.97
2022-08-21T17:15:39.141Z,27.88
2022-08-21T17:18:09.547Z,27.94
2022-08-21T17:20:37.202Z,27.88
2022-08-21T17:23:04.886Z,27.99
2022-08-21T17:25:39.783Z,28.07
2022-08-21T17:28:07.724Z,27.50
2022-08-21T17:30:35.424Z,27.40
2022-08-21T17:33:03.066Z,27.33
2022-08-21T17:35:35.367Z,27.70
2022-08-21T17:38:03.124Z,27.87
2022-08-21T17:40:36.468Z,27.82
2022-08-21T17:43:05.724Z,27.85
2022-08-21T17:45:34.085Z,26.28
2022-08-21T17:48:05.372Z,27.59
2022-08-21T17:50:35.221Z,27.48
2022-08-21T17:53:03.145Z,27.46
2022-08-21T17:55:32.034Z,27.36
2022-08-21T17:58:02.210Z,27.30
2022-08-21T18:00:30.812Z,27.27
2022-08-21T18:03:03.308Z,27.25
2022-08-21T18:05:31.202Z,27.26
2022-08-21T18:08:00.473Z,27.18
2022-08-21T18:10:28.476Z,27.24
2022-08-21T18:12:56.443Z,27.24
2022-08-21T18:15:27.219Z,27.20
2022-08-21T18:17:55.041Z,27.06
2022-08-21T18:20:24.661Z,26.90
2022-08-21T18:22:54.918Z,26.93
2022-08-21T18:25:25.139Z,26.87
2022-08-21T18:27:54.791Z,26.78
2022-08-21T18:30:23.505Z,26.67
2022-08-21T18:32:54.037Z,26.61
2022-08-21T18:35:21.761Z,26.70
2022-08-21T18:37:49.463Z,26.70
2022-08-21T18:40:18.159Z,26.54
2022-08-21T18:42:55.007Z,26.48
2022-08-21T18:45:24.101Z,26.44
2022-08-21T18:47:52.641Z,26.55
2022-08-21T18:50:25.025Z,26.39
2022-08-21T18:52:54.617Z,26.24
2022-08-21T18:55:23.151Z,26.20
2022-08-21T18:57:54.051Z,26.10
2022-08-21T19:00:24.442Z,26.12
2022-08-21T19:02:53.178Z,26.03
2022-08-21T19:05:21.124Z,26.02
2022-08-21T19:07:51.458Z,25.96
2022-08-21T19:10:28.403Z,26.13
2022-08-21T19:12:59.594Z,25.96
2022-08-21T19:15:27.534Z,25.91
2022-08-21T19:17:56.639Z,25.65
2022-08-21T19:20:27.987Z,25.82
2022-08-21T19:23:00.247Z,25.75
2022-08-21T19:25:33.408Z,25.82
2022-08-21T19:28:03.723Z,25.78
2022-08-21T19:30:39.702Z,25.75
2022-08-21T19:33:08.711Z,25.68
2022-08-21T19:35:36.666Z,25.62
2022-08-21T19:38:04.440Z,25.51
2022-08-21T19:40:32.777Z,25.39
2022-08-21T19:43:01.158Z,25.30
2022-08-21T19:45:30.696Z,25.21
2022-08-21T19:48:01.033Z,25.17
2022-08-21T19:50:31.842Z,25.23
2022-08-21T19:53:01.019Z,25.18
2022-08-21T19:55:30.031Z,25.08
2022-08-21T19:57:58.028Z,25.12
2022-08-21T20:00:25.708Z,24.80
2022-08-21T20:02:55.605Z,24.80
2022-08-21T20:05:25.191Z,24.92
2022-08-21T20:08:20.061Z,24.51
2022-08-21T20:10:49.821Z,24.63
2022-08-21T20:13:17.806Z,24.63
2022-08-21T20:15:46.571Z,24.43
2022-08-21T20:18:15.890Z,24.36
2022-08-21T20:20:44.001Z,24.24
2022-08-21T20:23:12.061Z,24.10
2022-08-21T20:25:39.838Z,24.16
2022-08-21T20:28:07.623Z,23.59
2022-08-21T20:30:36.248Z,23.67
2022-08-21T20:33:03.971Z,23.68
2022-08-21T20:35:35.144Z,23.74
2022-08-21T20:38:03.117Z,23.76
2022-08-21T20:40:37.586Z,23.58
2022-08-21T20:43:05.549Z,23.31
2022-08-21T20:45:34.178Z,23.27
2022-08-21T20:48:03.302Z,23.32
2022-08-21T20:50:31.478Z,23.35
2022-08-21T20:53:03.500Z,23.52
2022-08-21T20:55:32.298Z,23.23
2022-08-21T20:58:02.507Z,23.29
2022-08-21T21:00:32.441Z,22.99
2022-08-21T21:03:02.187Z,23.15
2022-08-21T21:05:32.796Z,23.00
2022-08-21T21:08:03.586Z,23.11
2022-08-21T21:10:34.170Z,23.39
2022-08-21T21:13:06.618Z,23.34
2022-08-21T21:15:34.742Z,23.33
2022-08-21T21:18:05.303Z,23.52
2022-08-21T21:20:35.486Z,23.54
2022-08-21T21:23:12.676Z,23.70
2022-08-21T21:25:41.460Z,23.74
2022-08-21T21:28:12.829Z,23.74
2022-08-21T21:30:46.739Z,23.57
2022-08-21T21:33:31.196Z,22.95
2022-08-21T21:36:00.470Z,22.69
2022-08-21T21:38:31.757Z,22.36
2022-08-21T21:41:05.978Z,22.68
2022-08-21T21:43:38.788Z,22.23
2022-08-21T21:46:10.934Z,22.19
2022-08-21T21:48:46.975Z,22.77
2022-08-21T21:51:26.951Z,23.03
2022-08-21T21:54:00.949Z,22.47
2022-08-21T21:56:32.374Z,22.20
2022-08-21T21:59:09.942Z,22.01
2022-08-21T22:01:44.526Z,21.87
2022-08-21T22:04:17.270Z,21.70
2022-08-21T22:06:48.556Z,21.79
2022-08-21T22:09:22.110Z,21.75
2022-08-21T22:11:58.087Z,21.89
2022-08-21T22:14:29.115Z,21.29
2022-08-21T22:16:56.874Z,21.14
2022-08-21T22:19:25.435Z,21.18
2022-08-21T22:22:00.798Z,21.30
2022-08-21T22:24:32.046Z,21.29
2022-08-21T22:27:01.807Z,21.04
2022-08-21T22:29:52.615Z,21.02
2022-08-21T22:32:25.660Z,21.24
2022-08-21T22:35:03.860Z,21.46
2022-08-21T22:37:44.646Z,21.52
2022-08-21T22:40:16.734Z,21.31
2022-08-21T22:42:44.609Z,21.67
2022-08-21T22:45:12.566Z,21.27
2022-08-21T22:47:43.909Z,21.40
2022-08-21T22:50:28.226Z,21.22
2022-08-21T22:52:57.992Z,21.10
2022-08-21T22:55:38.060Z,21.18
2022-08-21T22:58:09.950Z,21.11
2022-08-21T23:00:55.680Z,21.18
2022-08-21T23:03:30.389Z,21.32
2022-08-21T23:05:59.968Z,21.51
2022-08-21T23:08:31.827Z,21.34
2022-08-21T23:11:03.031Z,21.22
2022-08-21T23:13:39.979Z,21.33
2022-08-21T23:16:15.748Z,21.04
2022-08-21T23:18:49.794Z,20.89
2022-08-21T23:21:19.657Z,20.67
2022-08-21T23:23:50.432Z,20.48
2022-08-21T23:26:25.216Z,20.29
2022-08-21T23:29:03.006Z,20.41
2022-08-21T23:31:39.533Z,20.83
2022-08-21T23:34:15.864Z,21.01
2022-08-21T23:37:14.506Z,20.89
2022-08-21T23:39:51.490Z,20.93
2022-08-21T23:42:28.161Z,21.15
2022-08-21T23:44:56.789Z,20.90
2022-08-21T23:47:28.825Z,20.83
2022-08-21T23:50:13.930Z,20.78
2022-08-21T23:52:48.931Z,20.79
2022-08-21T23:55:19.436Z,20.76
2022-08-21T23:57:55.019Z,20.68
